sensor_id;sensor_type;location;lat;lon;timestamp;P1;durP1;ratioP1;P2;durP2;ratioP2
19329;SDS011;9799;48.214;16.388;2023-08-24T00:03:13;10.25;;;9.35;;
19329;SDS011;9799;48.214;16.388;2023-08-24T00:06:34;10.02;;;9.02;;
19329;SDS011;9799;48.214;16.388;2023-08-24T00:09:56;10.38;;;9.15;;
19329;SDS011;9799;48.214;16.388;2023-08-24T00:13:18;10.18;;;9.27;;
19329;SDS011;9799;48.214;16.388;2023-08-24T00:16:39;9.73;;;8.93;;
19329;SDS011;9799;48.214;16.388;2023-08-24T00:20:01;10.30;;;9.27;;
19329;SDS011;9799;48.214;16.388;2023-08-24T00:23:24;10.90;;;9.95;;
19329;SDS011;9799;48.214;16.388;2023-08-24T00:26:47;10.65;;;9.65;;
19329;SDS011;9799;48.214;16.388;2023-08-24T00:30:08;10.43;;;9.57;;
19329;SDS011;9799;48.214;16.388;2023-08-24T00:33:30;10.00;;;9.20;;
19329;SDS011;9799;48.214;16.388;2023-08-24T00:36:52;11.80;;;9.38;;
19329;SDS011;9799;48.214;16.388;2023-08-24T00:40:14;11.10;;;9.20;;
19329;SDS011;9799;48.214;16.388;2023-08-24T00:43:36;10.88;;;9.77;;
19329;SDS011;9799;48.214;16.388;2023-08-24T00:46:58;12.63;;;10.40;;
19329;SDS011;9799;48.214;16.388;2023-08-24T00:50:19;10.95;;;9.75;;
19329;SDS011;9799;48.214;16.388;2023-08-24T00:53:41;11.13;;;10.00;;
19329;SDS011;9799;48.214;16.388;2023-08-24T00:57:02;11.80;;;9.48;;
19329;SDS011;9799;48.214;16.388;2023-08-24T01:00:25;10.75;;;9.85;;
19329;SDS011;9799;48.214;16.388;2023-08-24T01:03:46;8.95;;;8.15;;
19329;SDS011;9799;48.214;16.388;2023-08-24T01:07:08;9.88;;;8.90;;
19329;SDS011;9799;48.214;16.388;2023-08-24T01:10:30;9.18;;;8.27;;
19329;SDS011;9799;48.214;16.388;2023-08-24T01:14:04;10.82;;;9.73;;
19329;SDS011;9799;48.214;16.388;2023-08-24T01:17:36;9.75;;;8.95;;
19329;SDS011;9799;48.214;16.388;2023-08-24T01:21:01;10.30;;;9.25;;
19329;SDS011;9799;48.214;16.388;2023-08-24T01:24:26;11.40;;;9.27;;
19329;SDS011;9799;48.214;16.388;2023-08-24T01:27:58;10.30;;;9.25;;
19329;SDS011;9799;48.214;16.388;2023-08-24T01:31:19;10.45;;;9.45;;
19329;SDS011;9799;48.214;16.388;2023-08-24T01:34:41;10.80;;;9.32;;
19329;SDS011;9799;48.214;16.388;2023-08-24T01:38:02;10.60;;;9.50;;
19329;SDS011;9799;48.214;16.388;2023-08-24T01:41:26;10.50;;;9.43;;
19329;SDS011;9799;48.214;16.388;2023-08-24T01:44:55;10.57;;;9.25;;
19329;SDS011;9799;48.214;16.388;2023-08-24T01:48:18;10.10;;;9.05;;
19329;SDS011;9799;48.214;16.388;2023-08-24T01:51:41;10.32;;;8.55;;
19329;SDS011;9799;48.214;16.388;2023-08-24T01:55:03;10.48;;;9.25;;
19329;SDS011;9799;48.214;16.388;2023-08-24T01:58:25;12.27;;;9.80;;
19329;SDS011;9799;48.214;16.388;2023-08-24T02:01:47;9.98;;;9.07;;
19329;SDS011;9799;48.214;16.388;2023-08-24T02:05:09;10.30;;;9.20;;
19329;SDS011;9799;48.214;16.388;2023-08-24T02:08:30;10.27;;;9.07;;
19329;SDS011;9799;48.214;16.388;2023-08-24T02:11:51;10.25;;;9.35;;
19329;SDS011;9799;48.214;16.388;2023-08-24T02:15:12;10.75;;;9.30;;
19329;SDS011;9799;48.214;16.388;2023-08-24T02:18:35;13.95;;;10.20;;
19329;SDS011;9799;48.214;16.388;2023-08-24T02:21:56;10.80;;;9.75;;
19329;SDS011;9799;48.214;16.388;2023-08-24T02:25:17;10.30;;;9.05;;
19329;SDS011;9799;48.214;16.388;2023-08-24T02:28:38;10.52;;;9.43;;
19329;SDS011;9799;48.214;16.388;2023-08-24T02:32:00;10.18;;;9.18;;
19329;SDS011;9799;48.214;16.388;2023-08-24T02:35:22;10.07;;;9.07;;
19329;SDS011;9799;48.214;16.388;2023-08-24T02:38:43;12.63;;;9.55;;
19329;SDS011;9799;48.214;16.388;2023-08-24T02:42:04;11.98;;;10.82;;
19329;SDS011;9799;48.214;16.388;2023-08-24T02:45:26;11.15;;;10.05;;
19329;SDS011;9799;48.214;16.388;2023-08-24T02:48:47;11.30;;;9.60;;
19329;SDS011;9799;48.214;16.388;2023-08-24T02:52:10;13.02;;;9.40;;
19329;SDS011;9799;48.214;16.388;2023-08-24T02:55:31;10.52;;;9.52;;
19329;SDS011;9799;48.214;16.388;2023-08-24T02:58:53;10.98;;;9.98;;
19329;SDS011;9799;48.214;16.388;2023-08-24T03:02:14;10.70;;;9.80;;
19329;SDS011;9799;48.214;16.388;2023-08-24T03:05:36;10.52;;;9.63;;
19329;SDS011;9799;48.214;16.388;2023-08-24T03:08:59;11.40;;;10.25;;
19329;SDS011;9799;48.214;16.388;2023-08-24T03:12:23;11.30;;;10.40;;
19329;SDS011;9799;48.214;16.388;2023-08-24T03:15:44;11.43;;;10.25;;
19329;SDS011;9799;48.214;16.388;2023-08-24T03:19:08;11.20;;;10.18;;
19329;SDS011;9799;48.214;16.388;2023-08-24T03:22:30;12.73;;;10.90;;
19329;SDS011;9799;48.214;16.388;2023-08-24T03:25:53;11.80;;;10.57;;
19329;SDS011;9799;48.214;16.388;2023-08-24T03:29:15;11.57;;;10.48;;
19329;SDS011;9799;48.214;16.388;2023-08-24T03:32:36;12.15;;;11.15;;
19329;SDS011;9799;48.214;16.388;2023-08-24T03:35:57;13.18;;;11.90;;
19329;SDS011;9799;48.214;16.388;2023-08-24T03:39:19;14.00;;;12.50;;
19329;SDS011;9799;48.214;16.388;2023-08-24T03:42:41;15.02;;;13.18;;
19329;SDS011;9799;48.214;16.388;2023-08-24T03:46:02;12.60;;;11.40;;
19329;SDS011;9799;48.214;16.388;2023-08-24T03:49:24;14.25;;;12.43;;
19329;SDS011;9799;48.214;16.388;2023-08-24T03:52:47;12.30;;;11.07;;
19329;SDS011;9799;48.214;16.388;2023-08-24T03:56:08;15.18;;;11.68;;
19329;SDS011;9799;48.214;16.388;2023-08-24T03:59:31;12.98;;;11.77;;
19329;SDS011;9799;48.214;16.388;2023-08-24T04:02:52;13.68;;;12.07;;
19329;SDS011;9799;48.214;16.388;2023-08-24T04:06:13;13.57;;;12.38;;
19329;SDS011;9799;48.214;16.388;2023-08-24T04:09:34;12.27;;;11.00;;
19329;SDS011;9799;48.214;16.388;2023-08-24T04:12:56;12.95;;;11.75;;
19329;SDS011;9799;48.214;16.388;2023-08-24T04:16:18;14.82;;;13.32;;
19329;SDS011;9799;48.214;16.388;2023-08-24T04:19:39;11.73;;;10.73;;
19329;SDS011;9799;48.214;16.388;2023-08-24T04:23:01;16.33;;;11.70;;
19329;SDS011;9799;48.214;16.388;2023-08-24T04:26:23;14.43;;;12.25;;
19329;SDS011;9799;48.214;16.388;2023-08-24T04:29:44;13.75;;;12.45;;
19329;SDS011;9799;48.214;16.388;2023-08-24T04:33:06;13.05;;;11.80;;
19329;SDS011;9799;48.214;16.388;2023-08-24T04:36:27;12.68;;;11.57;;
19329;SDS011;9799;48.214;16.388;2023-08-24T04:39:49;14.35;;;12.95;;
19329;SDS011;9799;48.214;16.388;2023-08-24T04:43:09;13.25;;;12.07;;
19329;SDS011;9799;48.214;16.388;2023-08-24T04:46:31;13.63;;;12.32;;
19329;SDS011;9799;48.214;16.388;2023-08-24T04:49:53;12.80;;;11.63;;
19329;SDS011;9799;48.214;16.388;2023-08-24T04:53:15;16.65;;;12.32;;
19329;SDS011;9799;48.214;16.388;2023-08-24T04:56:38;13.38;;;12.07;;
19329;SDS011;9799;48.214;16.388;2023-08-24T04:59:59;13.63;;;12.30;;
19329;SDS011;9799;48.214;16.388;2023-08-24T05:03:20;15.00;;;13.50;;
19329;SDS011;9799;48.214;16.388;2023-08-24T05:06:43;16.20;;;13.32;;
19329;SDS011;9799;48.214;16.388;2023-08-24T05:10:04;14.25;;;12.32;;
19329;SDS011;9799;48.214;16.388;2023-08-24T05:13:26;15.75;;;13.90;;
19329;SDS011;9799;48.214;16.388;2023-08-24T05:16:47;16.42;;;12.88;;
19329;SDS011;9799;48.214;16.388;2023-08-24T05:20:09;14.02;;;12.57;;
19329;SDS011;9799;48.214;16.388;2023-08-24T05:23:32;13.30;;;12.10;;
19329;SDS011;9799;48.214;16.388;2023-08-24T05:26:54;37.35;;;33.70;;
19329;SDS011;9799;48.214;16.388;2023-08-24T05:30:15;18.05;;;16.30;;
19329;SDS011;9799;48.214;16.388;2023-08-24T05:33:36;14.70;;;13.38;;
19329;SDS011;9799;48.214;16.388;2023-08-24T05:36:57;14.93;;;13.00;;
19329;SDS011;9799;48.214;16.388;2023-08-24T05:40:20;13.60;;;12.30;;
19329;SDS011;9799;48.214;16.388;2023-08-24T05:43:41;13.20;;;12.00;;
19329;SDS011;9799;48.214;16.388;2023-08-24T05:47:02;15.07;;;13.55;;
19329;SDS011;9799;48.214;16.388;2023-08-24T05:50:24;14.55;;;13.10;;
19329;SDS011;9799;48.214;16.388;2023-08-24T05:53:45;14.90;;;13.38;;
19329;SDS011;9799;48.214;16.388;2023-08-24T05:57:07;15.82;;;14.00;;
19329;SDS011;9799;48.214;16.388;2023-08-24T06:00:29;16.38;;;13.50;;
19329;SDS011;9799;48.214;16.388;2023-08-24T06:03:50;16.55;;;14.32;;
19329;SDS011;9799;48.214;16.388;2023-08-24T06:07:11;13.98;;;12.60;;
19329;SDS011;9799;48.214;16.388;2023-08-24T06:10:32;14.57;;;12.82;;
19329;SDS011;9799;48.214;16.388;2023-08-24T06:13:55;13.98;;;12.57;;
19329;SDS011;9799;48.214;16.388;2023-08-24T06:17:16;13.27;;;12.13;;
19329;SDS011;9799;48.214;16.388;2023-08-24T06:20:37;13.73;;;12.52;;
19329;SDS011;9799;48.214;16.388;2023-08-24T06:23:58;13.70;;;12.40;;
19329;SDS011;9799;48.214;16.388;2023-08-24T06:27:20;14.60;;;12.85;;
19329;SDS011;9799;48.214;16.388;2023-08-24T06:30:43;13.95;;;12.75;;
19329;SDS011;9799;48.214;16.388;2023-08-24T06:34:06;13.55;;;12.35;;
19329;SDS011;9799;48.214;16.388;2023-08-24T06:37:27;13.75;;;12.55;;
19329;SDS011;9799;48.214;16.388;2023-08-24T06:40:48;15.40;;;12.75;;
19329;SDS011;9799;48.214;16.388;2023-08-24T06:44:09;14.77;;;13.27;;
19329;SDS011;9799;48.214;16.388;2023-08-24T06:47:32;14.18;;;12.70;;
19329;SDS011;9799;48.214;16.388;2023-08-24T06:50:53;14.43;;;12.98;;
19329;SDS011;9799;48.214;16.388;2023-08-24T06:54:14;15.57;;;14.05;;
19329;SDS011;9799;48.214;16.388;2023-08-24T06:57:35;14.55;;;13.13;;
19329;SDS011;9799;48.214;16.388;2023-08-24T07:00:57;15.45;;;13.30;;
19329;SDS011;9799;48.214;16.388;2023-08-24T07:04:19;14.95;;;13.23;;
19329;SDS011;9799;48.214;16.388;2023-08-24T07:07:40;20.33;;;14.10;;
19329;SDS011;9799;48.214;16.388;2023-08-24T07:11:02;15.27;;;13.68;;
19329;SDS011;9799;48.214;16.388;2023-08-24T07:14:24;14.98;;;13.63;;
19329;SDS011;9799;48.214;16.388;2023-08-24T07:17:45;14.68;;;13.25;;
19329;SDS011;9799;48.214;16.388;2023-08-24T07:21:07;15.05;;;13.63;;
19329;SDS011;9799;48.214;16.388;2023-08-24T07:24:28;19.52;;;13.60;;
19329;SDS011;9799;48.214;16.388;2023-08-24T07:27:49;24.15;;;13.48;;
19329;SDS011;9799;48.214;16.388;2023-08-24T07:31:11;15.93;;;14.38;;
19329;SDS011;9799;48.214;16.388;2023-08-24T07:34:32;17.48;;;13.00;;
19329;SDS011;9799;48.214;16.388;2023-08-24T07:37:55;15.45;;;12.38;;
19329;SDS011;9799;48.214;16.388;2023-08-24T07:41:17;17.42;;;14.35;;
19329;SDS011;9799;48.214;16.388;2023-08-24T07:44:38;14.77;;;13.30;;
19329;SDS011;9799;48.214;16.388;2023-08-24T07:47:59;13.85;;;12.45;;
19329;SDS011;9799;48.214;16.388;2023-08-24T07:51:21;14.48;;;13.07;;
19329;SDS011;9799;48.214;16.388;2023-08-24T07:54:43;15.43;;;13.18;;
19329;SDS011;9799;48.214;16.388;2023-08-24T07:58:05;14.55;;;13.05;;
19329;SDS011;9799;48.214;16.388;2023-08-24T08:01:26;15.18;;;13.52;;
19329;SDS011;9799;48.214;16.388;2023-08-24T08:04:47;15.25;;;13.85;;
19329;SDS011;9799;48.214;16.388;2023-08-24T08:08:08;13.77;;;12.55;;
19329;SDS011;9799;48.214;16.388;2023-08-24T08:11:31;15.45;;;13.80;;
19329;SDS011;9799;48.214;16.388;2023-08-24T08:14:54;15.68;;;13.85;;
19329;SDS011;9799;48.214;16.388;2023-08-24T08:18:16;14.93;;;13.35;;
19329;SDS011;9799;48.214;16.388;2023-08-24T08:21:37;16.90;;;12.93;;
19329;SDS011;9799;48.214;16.388;2023-08-24T08:24:58;13.70;;;12.23;;
19329;SDS011;9799;48.214;16.388;2023-08-24T08:28:20;14.05;;;12.68;;
19329;SDS011;9799;48.214;16.388;2023-08-24T08:31:42;13.93;;;12.35;;
19329;SDS011;9799;48.214;16.388;2023-08-24T08:35:03;14.20;;;12.75;;
19329;SDS011;9799;48.214;16.388;2023-08-24T08:38:25;16.05;;;13.40;;
19329;SDS011;9799;48.214;16.388;2023-08-24T08:41:46;14.70;;;13.30;;
19329;SDS011;9799;48.214;16.388;2023-08-24T08:45:10;14.73;;;11.93;;
19329;SDS011;9799;48.214;16.388;2023-08-24T08:48:31;16.38;;;11.82;;
19329;SDS011;9799;48.214;16.388;2023-08-24T08:51:54;12.70;;;11.63;;
19329;SDS011;9799;48.214;16.388;2023-08-24T08:55:16;11.75;;;10.68;;
19329;SDS011;9799;48.214;16.388;2023-08-24T08:58:37;12.13;;;11.02;;
19329;SDS011;9799;48.214;16.388;2023-08-24T09:02:04;12.40;;;11.00;;
19329;SDS011;9799;48.214;16.388;2023-08-24T09:05:26;12.20;;;11.00;;
19329;SDS011;9799;48.214;16.388;2023-08-24T09:08:47;13.90;;;11.38;;
19329;SDS011;9799;48.214;16.388;2023-08-24T09:12:09;11.38;;;10.38;;
19329;SDS011;9799;48.214;16.388;2023-08-24T09:15:34;15.50;;;10.93;;
19329;SDS011;9799;48.214;16.388;2023-08-24T09:18:57;14.30;;;11.30;;
19329;SDS011;9799;48.214;16.388;2023-08-24T09:22:18;13.55;;;11.27;;
19329;SDS011;9799;48.214;16.388;2023-08-24T09:25:44;15.63;;;10.80;;
19329;SDS011;9799;48.214;16.388;2023-08-24T09:29:10;11.45;;;10.35;;
19329;SDS011;9799;48.214;16.388;2023-08-24T09:32:32;18.48;;;10.73;;
19329;SDS011;9799;48.214;16.388;2023-08-24T09:35:55;11.45;;;10.35;;
19329;SDS011;9799;48.214;16.388;2023-08-24T09:39:20;24.05;;;9.80;;
19329;SDS011;9799;48.214;16.388;2023-08-24T09:42:42;11.30;;;10.13;;
19329;SDS011;9799;48.214;16.388;2023-08-24T09:46:03;10.55;;;9.52;;
19329;SDS011;9799;48.214;16.388;2023-08-24T09:49:26;11.05;;;9.77;;
19329;SDS011;9799;48.214;16.388;2023-08-24T09:52:50;10.30;;;9.30;;
19329;SDS011;9799;48.214;16.388;2023-08-24T09:56:14;12.02;;;10.27;;
19329;SDS011;9799;48.214;16.388;2023-08-24T09:59:36;13.63;;;10.82;;
19329;SDS011;9799;48.214;16.388;2023-08-24T10:03:04;11.32;;;10.20;;
19329;SDS011;9799;48.214;16.388;2023-08-24T10:06:27;12.75;;;11.27;;
19329;SDS011;9799;48.214;16.388;2023-08-24T10:09:52;13.98;;;10.52;;
19329;SDS011;9799;48.214;16.388;2023-08-24T10:13:20;9.73;;;8.77;;
19329;SDS011;9799;48.214;16.388;2023-08-24T10:16:47;11.63;;;9.25;;
19329;SDS011;9799;48.214;16.388;2023-08-24T10:20:09;10.02;;;9.07;;
19329;SDS011;9799;48.214;16.388;2023-08-24T10:23:31;9.85;;;8.73;;
19329;SDS011;9799;48.214;16.388;2023-08-24T10:26:55;11.43;;;9.73;;
19329;SDS011;9799;48.214;16.388;2023-08-24T10:30:18;21.45;;;9.43;;
19329;SDS011;9799;48.214;16.388;2023-08-24T10:33:40;9.70;;;8.85;;
19329;SDS011;9799;48.214;16.388;2023-08-24T10:37:07;10.80;;;9.55;;
19329;SDS011;9799;48.214;16.388;2023-08-24T10:40:33;10.00;;;9.02;;
19329;SDS011;9799;48.214;16.388;2023-08-24T10:44:04;10.85;;;8.95;;
19329;SDS011;9799;48.214;16.388;2023-08-24T10:47:28;9.85;;;9.05;;
19329;SDS011;9799;48.214;16.388;2023-08-24T10:54:42;18.05;;;9.70;;
19329;SDS011;9799;48.214;16.388;2023-08-24T10:58:04;10.68;;;9.57;;
19329;SDS011;9799;48.214;16.388;2023-08-24T11:01:27;13.25;;;11.88;;
19329;SDS011;9799;48.214;16.388;2023-08-24T11:05:05;9.98;;;8.95;;
19329;SDS011;9799;48.214;16.388;2023-08-24T11:12:04;12.32;;;9.35;;
19329;SDS011;9799;48.214;16.388;2023-08-24T11:15:29;11.98;;;9.73;;
19329;SDS011;9799;48.214;16.388;2023-08-24T11:18:52;12.55;;;10.30;;
19329;SDS011;9799;48.214;16.388;2023-08-24T11:22:13;11.32;;;10.23;;
19329;SDS011;9799;48.214;16.388;2023-08-24T11:25:35;10.85;;;9.45;;
19329;SDS011;9799;48.214;16.388;2023-08-24T11:28:56;11.10;;;10.00;;
19329;SDS011;9799;48.214;16.388;2023-08-24T11:32:18;10.40;;;9.45;;
19329;SDS011;9799;48.214;16.388;2023-08-24T11:35:41;10.75;;;9.75;;
19329;SDS011;9799;48.214;16.388;2023-08-24T11:39:03;11.80;;;10.77;;
19329;SDS011;9799;48.214;16.388;2023-08-24T11:42:25;10.85;;;9.65;;
19329;SDS011;9799;48.214;16.388;2023-08-24T11:45:46;12.88;;;11.50;;
19329;SDS011;9799;48.214;16.388;2023-08-24T11:49:07;10.52;;;9.50;;
19329;SDS011;9799;48.214;16.388;2023-08-24T11:52:30;9.63;;;8.80;;
19329;SDS011;9799;48.214;16.388;2023-08-24T11:55:54;10.45;;;9.32;;
19329;SDS011;9799;48.214;16.388;2023-08-24T11:59:16;11.10;;;9.45;;
19329;SDS011;9799;48.214;16.388;2023-08-24T12:02:37;11.88;;;9.95;;
19329;SDS011;9799;48.214;16.388;2023-08-24T12:05:59;12.20;;;9.20;;
19329;SDS011;9799;48.214;16.388;2023-08-24T12:09:22;10.68;;;9.43;;
19329;SDS011;9799;48.214;16.388;2023-08-24T12:12:43;11.13;;;9.95;;
19329;SDS011;9799;48.214;16.388;2023-08-24T12:16:04;10.05;;;9.02;;
19329;SDS011;9799;48.214;16.388;2023-08-24T12:19:26;10.10;;;9.10;;
19329;SDS011;9799;48.214;16.388;2023-08-24T12:22:50;9.23;;;8.35;;
19329;SDS011;9799;48.214;16.388;2023-08-24T12:26:20;10.05;;;9.05;;
19329;SDS011;9799;48.214;16.388;2023-08-24T12:29:43;9.63;;;8.73;;
19329;SDS011;9799;48.214;16.388;2023-08-24T12:33:05;9.88;;;8.98;;
19329;SDS011;9799;48.214;16.388;2023-08-24T12:36:26;11.63;;;8.18;;
19329;SDS011;9799;48.214;16.388;2023-08-24T12:39:48;10.65;;;8.60;;
19329;SDS011;9799;48.214;16.388;2023-08-24T12:43:10;9.95;;;8.95;;
19329;SDS011;9799;48.214;16.388;2023-08-24T12:46:32;10.65;;;9.32;;
19329;SDS011;9799;48.214;16.388;2023-08-24T12:49:53;10.00;;;8.98;;
19329;SDS011;9799;48.214;16.388;2023-08-24T12:53:15;9.85;;;8.23;;
19329;SDS011;9799;48.214;16.388;2023-08-24T12:56:36;8.90;;;8.10;;
19329;SDS011;9799;48.214;16.388;2023-08-24T12:59:58;9.73;;;9.00;;
19329;SDS011;9799;48.214;16.388;2023-08-24T13:03:19;14.30;;;9.30;;
19329;SDS011;9799;48.214;16.388;2023-08-24T13:06:40;11.35;;;8.20;;
19329;SDS011;9799;48.214;16.388;2023-08-24T13:10:02;10.48;;;8.65;;
19329;SDS011;9799;48.214;16.388;2023-08-24T13:13:23;9.98;;;8.82;;
19329;SDS011;9799;48.214;16.388;2023-08-24T13:16:46;9.32;;;8.52;;
19329;SDS011;9799;48.214;16.388;2023-08-24T13:20:08;10.52;;;8.77;;
19329;SDS011;9799;48.214;16.388;2023-08-24T13:23:30;10.18;;;9.25;;
19329;SDS011;9799;48.214;16.388;2023-08-24T13:26:53;10.18;;;9.23;;
19329;SDS011;9799;48.214;16.388;2023-08-24T13:30:14;10.38;;;9.45;;
19329;SDS011;9799;48.214;16.388;2023-08-24T13:33:36;10.98;;;9.88;;
19329;SDS011;9799;48.214;16.388;2023-08-24T13:36:58;10.30;;;9.27;;
19329;SDS011;9799;48.214;16.388;2023-08-24T13:40:19;10.88;;;9.73;;
19329;SDS011;9799;48.214;16.388;2023-08-24T13:43:40;10.63;;;9.60;;
19329;SDS011;9799;48.214;16.388;2023-08-24T13:47:01;11.07;;;9.63;;
19329;SDS011;9799;48.214;16.388;2023-08-24T13:50:24;11.50;;;9.13;;
19329;SDS011;9799;48.214;16.388;2023-08-24T13:53:47;9.05;;;8.15;;
19329;SDS011;9799;48.214;16.388;2023-08-24T13:57:08;14.15;;;9.07;;
19329;SDS011;9799;48.214;16.388;2023-08-24T14:00:29;8.80;;;8.00;;
19329;SDS011;9799;48.214;16.388;2023-08-24T14:03:50;9.23;;;8.10;;
19329;SDS011;9799;48.214;16.388;2023-08-24T14:07:13;11.07;;;8.82;;
19329;SDS011;9799;48.214;16.388;2023-08-24T14:10:34;13.25;;;9.25;;
19329;SDS011;9799;48.214;16.388;2023-08-24T14:13:55;10.68;;;8.57;;
19329;SDS011;9799;48.214;16.388;2023-08-24T14:17:17;15.45;;;8.20;;
19329;SDS011;9799;48.214;16.388;2023-08-24T14:20:38;9.75;;;8.77;;
19329;SDS011;9799;48.214;16.388;2023-08-24T14:24:01;9.82;;;8.68;;
19329;SDS011;9799;48.214;16.388;2023-08-24T14:27:22;11.13;;;8.98;;
19329;SDS011;9799;48.214;16.388;2023-08-24T14:30:43;9.90;;;8.98;;
19329;SDS011;9799;48.214;16.388;2023-08-24T14:34:04;8.57;;;7.93;;
19329;SDS011;9799;48.214;16.388;2023-08-24T14:37:25;9.45;;;8.35;;
19329;SDS011;9799;48.214;16.388;2023-08-24T14:40:48;9.75;;;8.55;;
19329;SDS011;9799;48.214;16.388;2023-08-24T14:44:09;11.43;;;8.68;;
19329;SDS011;9799;48.214;16.388;2023-08-24T14:47:30;9.40;;;7.90;;
19329;SDS011;9799;48.214;16.388;2023-08-24T14:50:51;10.20;;;9.20;;
19329;SDS011;9799;48.214;16.388;2023-08-24T14:54:13;9.23;;;7.88;;
19329;SDS011;9799;48.214;16.388;2023-08-24T14:57:35;14.00;;;8.02;;
19329;SDS011;9799;48.214;16.388;2023-08-24T15:00:57;7.75;;;7.10;;
19329;SDS011;9799;48.214;16.388;2023-08-24T15:04:18;11.93;;;7.88;;
19329;SDS011;9799;48.214;16.388;2023-08-24T15:07:39;9.20;;;8.18;;
19329;SDS011;9799;48.214;16.388;2023-08-24T15:11:01;8.52;;;7.60;;
19329;SDS011;9799;48.214;16.388;2023-08-24T15:14:27;9.20;;;7.85;;
19329;SDS011;9799;48.214;16.388;2023-08-24T15:17:51;8.43;;;7.43;;
19329;SDS011;9799;48.214;16.388;2023-08-24T15:21:12;8.60;;;7.90;;
19329;SDS011;9799;48.214;16.388;2023-08-24T15:24:34;8.73;;;7.85;;
19329;SDS011;9799;48.214;16.388;2023-08-24T15:27:55;16.55;;;8.45;;
19329;SDS011;9799;48.214;16.388;2023-08-24T15:31:17;8.15;;;7.47;;
19329;SDS011;9799;48.214;16.388;2023-08-24T15:34:39;8.65;;;7.85;;
19329;SDS011;9799;48.214;16.388;2023-08-24T15:38:00;8.85;;;7.63;;
19329;SDS011;9799;48.214;16.388;2023-08-24T15:41:21;8.77;;;7.97;;
19329;SDS011;9799;48.214;16.388;2023-08-24T15:44:42;8.73;;;7.80;;
19329;SDS011;9799;48.214;16.388;2023-08-24T15:48:05;11.25;;;8.82;;
19329;SDS011;9799;48.214;16.388;2023-08-24T15:51:26;9.00;;;8.13;;
19329;SDS011;9799;48.214;16.388;2023-08-24T15:54:48;8.30;;;7.50;;
19329;SDS011;9799;48.214;16.388;2023-08-24T15:58:11;8.68;;;7.75;;
19329;SDS011;9799;48.214;16.388;2023-08-24T16:01:32;12.07;;;8.32;;
19329;SDS011;9799;48.214;16.388;2023-08-24T16:04:54;14.88;;;9.20;;
19329;SDS011;9799;48.214;16.388;2023-08-24T16:08:16;8.75;;;8.02;;
19329;SDS011;9799;48.214;16.388;2023-08-24T16:11:37;9.70;;;8.85;;
19329;SDS011;9799;48.214;16.388;2023-08-24T16:14:58;9.50;;;8.18;;
19329;SDS011;9799;48.214;16.388;2023-08-24T16:18:21;8.43;;;7.72;;
19329;SDS011;9799;48.214;16.388;2023-08-24T16:21:45;11.18;;;8.57;;
19329;SDS011;9799;48.214;16.388;2023-08-24T16:25:06;14.95;;;8.80;;
19329;SDS011;9799;48.214;16.388;2023-08-24T16:28:28;11.35;;;10.35;;
19329;SDS011;9799;48.214;16.388;2023-08-24T16:31:49;11.80;;;8.55;;
19329;SDS011;9799;48.214;16.388;2023-08-24T16:35:10;10.18;;;9.18;;
19329;SDS011;9799;48.214;16.388;2023-08-24T16:38:33;9.57;;;8.60;;
19329;SDS011;9799;48.214;16.388;2023-08-24T16:41:54;12.23;;;11.00;;
19329;SDS011;9799;48.214;16.388;2023-08-24T16:45:16;12.00;;;8.68;;
19329;SDS011;9799;48.214;16.388;2023-08-24T16:48:37;9.68;;;8.82;;
19329;SDS011;9799;48.214;16.388;2023-08-24T16:51:58;11.32;;;9.93;;
19329;SDS011;9799;48.214;16.388;2023-08-24T16:55:21;9.80;;;8.90;;
19329;SDS011;9799;48.214;16.388;2023-08-24T16:58:42;10.13;;;9.07;;
19329;SDS011;9799;48.214;16.388;2023-08-24T17:02:03;9.55;;;8.55;;
19329;SDS011;9799;48.214;16.388;2023-08-24T17:05:24;9.48;;;8.68;;
19329;SDS011;9799;48.214;16.388;2023-08-24T17:08:46;9.95;;;9.15;;
19329;SDS011;9799;48.214;16.388;2023-08-24T17:12:08;9.98;;;9.10;;
19329;SDS011;9799;48.214;16.388;2023-08-24T17:15:30;17.92;;;9.18;;
19329;SDS011;9799;48.214;16.388;2023-08-24T17:18:51;10.63;;;9.63;;
19329;SDS011;9799;48.214;16.388;2023-08-24T17:22:13;11.20;;;9.68;;
19329;SDS011;9799;48.214;16.388;2023-08-24T17:25:36;10.88;;;9.88;;
19329;SDS011;9799;48.214;16.388;2023-08-24T17:29:00;9.88;;;8.95;;
19329;SDS011;9799;48.214;16.388;2023-08-24T17:32:22;10.32;;;9.05;;
19329;SDS011;9799;48.214;16.388;2023-08-24T17:35:46;10.25;;;9.25;;
19329;SDS011;9799;48.214;16.388;2023-08-24T17:39:08;9.90;;;8.90;;
19329;SDS011;9799;48.214;16.388;2023-08-24T17:42:31;10.95;;;9.25;;
19329;SDS011;9799;48.214;16.388;2023-08-24T17:45:54;9.73;;;8.82;;
19329;SDS011;9799;48.214;16.388;2023-08-24T17:49:16;10.50;;;9.50;;
19329;SDS011;9799;48.214;16.388;2023-08-24T17:52:38;9.93;;;8.95;;
19329;SDS011;9799;48.214;16.388;2023-08-24T17:55:59;11.52;;;9.05;;
19329;SDS011;9799;48.214;16.388;2023-08-24T17:59:21;10.65;;;9.68;;
19329;SDS011;9799;48.214;16.388;2023-08-24T18:02:44;10.88;;;9.68;;
19329;SDS011;9799;48.214;16.388;2023-08-24T18:06:05;11.10;;;10.13;;
19329;SDS011;9799;48.214;16.388;2023-08-24T18:09:27;14.00;;;10.15;;
19329;SDS011;9799;48.214;16.388;2023-08-24T18:12:48;10.27;;;9.40;;
19329;SDS011;9799;48.214;16.388;2023-08-24T18:16:10;11.20;;;10.10;;
19329;SDS011;9799;48.214;16.388;2023-08-24T18:19:34;9.45;;;8.65;;
19329;SDS011;9799;48.214;16.388;2023-08-24T18:22:56;10.43;;;9.43;;
19329;SDS011;9799;48.214;16.388;2023-08-24T18:26:18;11.65;;;9.32;;
19329;SDS011;9799;48.214;16.388;2023-08-24T18:29:40;10.85;;;9.95;;
19329;SDS011;9799;48.214;16.388;2023-08-24T18:33:02;10.02;;;9.13;;
19329;SDS011;9799;48.214;16.388;2023-08-24T18:36:26;10.75;;;9.68;;
19329;SDS011;9799;48.214;16.388;2023-08-24T18:39:48;15.15;;;9.85;;
19329;SDS011;9799;48.214;16.388;2023-08-24T18:43:10;9.68;;;8.77;;
19329;SDS011;9799;48.214;16.388;2023-08-24T18:46:31;10.65;;;9.00;;
19329;SDS011;9799;48.214;16.388;2023-08-24T18:49:54;9.75;;;8.95;;
19329;SDS011;9799;48.214;16.388;2023-08-24T18:53:17;11.18;;;9.25;;
19329;SDS011;9799;48.214;16.388;2023-08-24T18:56:39;11.07;;;10.05;;
19329;SDS011;9799;48.214;16.388;2023-08-24T19:00:01;9.98;;;8.93;;
19329;SDS011;9799;48.214;16.388;2023-08-24T19:03:23;11.27;;;10.20;;
19329;SDS011;9799;48.214;16.388;2023-08-24T19:06:45;11.43;;;10.10;;
19329;SDS011;9799;48.214;16.388;2023-08-24T19:10:11;11.60;;;10.00;;
19329;SDS011;9799;48.214;16.388;2023-08-24T19:13:33;11.05;;;9.50;;
19329;SDS011;9799;48.214;16.388;2023-08-24T19:16:57;11.48;;;9.73;;
19329;SDS011;9799;48.214;16.388;2023-08-24T19:20:19;9.63;;;8.82;;
19329;SDS011;9799;48.214;16.388;2023-08-24T19:23:42;10.77;;;9.82;;
19329;SDS011;9799;48.214;16.388;2023-08-24T19:27:05;11.25;;;10.15;;
19329;SDS011;9799;48.214;16.388;2023-08-24T19:30:28;10.60;;;9.60;;
19329;SDS011;9799;48.214;16.388;2023-08-24T19:33:50;19.45;;;9.75;;
19329;SDS011;9799;48.214;16.388;2023-08-24T19:37:13;10.38;;;9.30;;
19329;SDS011;9799;48.214;16.388;2023-08-24T19:40:35;9.65;;;8.75;;
19329;SDS011;9799;48.214;16.388;2023-08-24T19:43:59;9.77;;;8.90;;
19329;SDS011;9799;48.214;16.388;2023-08-24T19:47:21;10.90;;;9.90;;
19329;SDS011;9799;48.214;16.388;2023-08-24T19:50:43;11.23;;;10.20;;
19329;SDS011;9799;48.214;16.388;2023-08-24T19:54:06;11.60;;;10.45;;
19329;SDS011;9799;48.214;16.388;2023-08-24T19:57:28;9.90;;;9.02;;
19329;SDS011;9799;48.214;16.388;2023-08-24T20:00:53;11.88;;;9.77;;
19329;SDS011;9799;48.214;16.388;2023-08-24T20:04:15;10.57;;;9.57;;